Time;durP1;ratioP1;P1;durP2;ratioP2;P2;SDS_P1;SDS_P2;PMS_P1;PMS_P2;Temp;Humidity;BMP_temperature;BMP_pressure;BME280_temperature;BME280_humidity;BME280_pressure;Samples;Min_cycle;Max_cycle;Signal;HPM_P1;HPM_P2
2023/05/04 06:31:04;;;;;;;0.63;0.63;;;;;;;;;;7421135;19;20172;-92
2023/05/04 06:33:30;;;;;;;0.63;0.63;;;;;;;;;;7394394;19;20176;-92
2023/05/04 06:35:57;;;;;;;0.90;0.90;;;;;;;;;;7393781;19;20176;-92
2023/05/04 06:38:24;;;;;;;1.23;1.13;;;;;;;;;;7386789;19;20133;-91
2023/05/04 06:40:50;;;;;;;0.63;0.63;;;;;;;;;;7382120;19;20137;-90
2023/05/04 06:43:17;;;;;;;0.83;0.83;;;;;;;;;;7393450;19;20144;-92
2023/05/04 06:45:43;;;;;;;2.57;1.20;;;;;;;;;;7394221;19;20156;-92
2023/05/04 06:48:10;;;;;;;1.00;1.00;;;;;;;;;;7393478;19;20171;-93
2023/05/04 06:50:38;;;;;;;0.90;0.90;;;;;;;;;;7395398;19;20618;-91
2023/05/04 06:53:08;;;;;;;1.00;1.00;;;;;;;;;;7397585;19;20137;-91
2023/05/04 06:56:09;;;;;;;0.60;0.60;;;;;;;;;;7388091;19;20501;-91
2023/05/04 06:58:59;;;;;;;1.07;0.97;;;;;;;;;;7394657;19;20148;-92
2023/05/04 07:01:30;;;;;;;4.27;2.07;;;;;;;;;;7389747;19;20141;-91
2023/05/04 07:04:11;;;;;;;0.87;0.87;;;;;;;;;;7396901;19;20148;-90
2023/05/04 07:06:52;;;;;;;2.53;1.70;;;;;;;;;;7399587;19;20173;-90
2023/05/04 07:09:33;;;;;;;0.37;0.37;;;;;;;;;;7395536;19;20149;-93
2023/05/04 07:12:03;;;;;;;0.70;0.60;;;;;;;;;;7411739;19;20180;-94
2023/05/04 07:14:35;;;;;;;0.77;0.77;;;;;;;;;;7428277;19;20133;-93
2023/05/04 07:17:13;;;;;;;0.93;0.93;;;;;;;;;;7426450;19;20161;-93
2023/05/04 07:19:51;;;;;;;0.97;0.97;;;;;;;;;;7430158;19;20183;-92
2023/05/04 07:22:19;;;;;;;0.90;0.90;;;;;;;;;;7428020;19;20146;-93
2023/05/04 07:24:46;;;;;;;0.80;0.80;;;;;;;;;;7429460;19;20141;-93
2023/05/04 07:27:12;;;;;;;0.43;0.43;;;;;;;;;;7431831;19;20156;-92
2023/05/04 07:29:40;;;;;;;1.37;1.27;;;;;;;;;;7427889;19;20148;-91
2023/05/04 07:32:07;;;;;;;0.50;0.50;;;;;;;;;;7399672;19;20601;-91
2023/05/04 07:34:34;;;;;;;0.93;0.93;;;;;;;;;;7397637;19;20140;-91
2023/05/04 07:37:12;;;;;;;0.60;0.60;;;;;;;;;;7397118;19;20132;-91
2023/05/04 07:39:38;;;;;;;0.53;0.53;;;;;;;;;;7392951;19;20156;-91
2023/05/04 07:42:06;;;;;;;0.90;0.90;;;;;;;;;;7395837;19;20137;-90
2023/05/04 07:44:33;;;;;;;1.80;0.60;;;;;;;;;;7394345;19;20166;-92
2023/05/04 07:47:00;;;;;;;0.63;0.63;;;;;;;;;;7393569;19;20178;-91
2023/05/04 07:49:27;;;;;;;1.00;1.00;;;;;;;;;;7394609;19;20141;-91
2023/05/04 07:51:53;;;;;;;0.77;0.77;;;;;;;;;;7399881;19;20142;-92
2023/05/04 07:54:21;;;;;;;0.70;0.70;;;;;;;;;;7394678;19;20133;-91
2023/05/04 07:56:48;;;;;;;0.70;0.70;;;;;;;;;;7396041;19;20153;-92
2023/05/04 07:59:18;;;;;;;0.77;0.77;;;;;;;;;;7398696;19;20955;-91
2023/05/04 08:01:46;;;;;;;0.67;0.67;;;;;;;;;;7396955;19;20501;-90
2023/05/04 08:04:12;;;;;;;1.10;0.93;;;;;;;;;;7395183;19;20534;-91
2023/05/04 08:06:40;;;;;;;2.27;1.13;;;;;;;;;;7393345;19;20145;-91
2023/05/04 08:09:07;;;;;;;1.10;1.10;;;;;;;;;;7412576;19;20157;-91
2023/05/04 08:11:33;;;;;;;0.40;0.40;;;;;;;;;;7404213;19;20541;-91
2023/05/04 08:14:00;;;;;;;0.70;0.70;;;;;;;;;;7395154;19;20172;-90
2023/05/04 08:16:28;;;;;;;1.00;1.00;;;;;;;;;;7393996;19;20181;-90
2023/05/04 08:18:55;;;;;;;7.77;1.33;;;;;;;;;;7396227;19;20154;-89
2023/05/04 08:21:22;;;;;;;0.50;0.50;;;;;;;;;;7397632;19;20167;-90
2023/05/04 08:23:49;;;;;;;1.33;1.23;;;;;;;;;;7395086;19;20136;-90
2023/05/04 08:26:16;;;;;;;0.80;0.80;;;;;;;;;;7392169;19;20196;-90
2023/05/04 08:28:44;;;;;;;1.30;1.00;;;;;;;;;;7394060;19;20168;-89
2023/05/04 08:31:11;;;;;;;0.50;0.43;;;;;;;;;;7391632;19;20141;-90
2023/05/04 08:33:38;;;;;;;1.00;1.00;;;;;;;;;;7392765;19;20145;-90
2023/05/04 08:36:06;;;;;;;1.00;1.00;;;;;;;;;;7391561;19;20687;-90
2023/05/04 08:38:33;;;;;;;0.67;0.67;;;;;;;;;;7395124;19;20160;-90
2023/05/04 08:41:02;;;;;;;0.60;0.60;;;;;;;;;;7392186;19;20137;-90
2023/05/04 08:43:29;;;;;;;0.90;0.90;;;;;;;;;;7396044;19;20152;-90
2023/05/04 08:45:55;;;;;;;0.73;0.73;;;;;;;;;;7395220;19;20148;-89
2023/05/04 08:48:22;;;;;;;0.77;0.77;;;;;;;;;;7393203;19;20624;-90
2023/05/04 08:50:49;;;;;;;0.70;0.70;;;;;;;;;;7397063;19;20148;-90
2023/05/04 08:53:17;;;;;;;0.70;0.70;;;;;;;;;;7395953;19;20143;-89
2023/05/04 08:55:46;;;;;;;1.13;1.03;;;;;;;;;;7395916;19;20180;-90
